createdAt,value
2022-09-28T00:00:15.327Z,5.40
2022-09-28T00:02:43.408Z,5.30
2022-09-28T00:05:12.758Z,5.20
2022-09-28T00:07:42.095Z,5.20
2022-09-28T00:10:12.416Z,5.20
2022-09-28T00:12:40.456Z,5.30
2022-09-28T00:15:08.946Z,5.30
2022-09-28T00:17:36.934Z,5.40
2022-09-28T00:20:06.090Z,5.40
2022-09-28T00:22:34.087Z,5.40
2022-09-28T00:25:02.000Z,5.30
2022-09-28T00:27:31.443Z,5.40
2022-09-28T00:30:00.104Z,5.30
2022-09-28T00:32:28.644Z,5.30
2022-09-28T00:34:56.603Z,5.20
2022-09-28T00:37:24.555Z,5.20
2022-09-28T00:39:52.615Z,5.10
2022-09-28T00:42:21.197Z,5.10
2022-09-28T00:44:51.349Z,5.10
2022-09-28T00:47:38.357Z,5.10
2022-09-28T00:50:08.201Z,5.10
2022-09-28T00:52:37.971Z,5.10
2022-09-28T00:55:08.424Z,5.10
2022-09-28T00:57:37.265Z,5.10
2022-09-28T01:00:07.551Z,5.00
2022-09-28T01:02:35.614Z,5.00
2022-09-28T01:05:04.508Z,4.90
2022-09-28T01:07:33.605Z,5.10
2022-09-28T01:10:01.835Z,5.10
2022-09-28T01:12:29.854Z,5.20
2022-09-28T01:14:58.662Z,5.20
2022-09-28T01:17:32.218Z,5.20
2022-09-28T01:20:33.511Z,5.30
2022-09-28T01:23:26.173Z,5.40
2022-09-28T01:25:55.626Z,5.50
2022-09-28T01:28:29.016Z,5.60
2022-09-28T01:31:03.333Z,5.60
2022-09-28T01:33:35.620Z,5.70
2022-09-28T01:36:06.311Z,5.70
2022-09-28T01:38:36.060Z,5.60
2022-09-28T01:41:04.815Z,5.60
2022-09-28T01:43:37.066Z,5.60
2022-09-28T01:46:07.990Z,5.60
2022-09-28T01:48:38.148Z,5.50
2022-09-28T01:51:08.677Z,5.50
2022-09-28T01:53:38.360Z,5.50
2022-09-28T01:56:09.417Z,5.50
2022-09-28T01:58:40.039Z,5.50
2022-09-28T02:01:11.490Z,5.40
2022-09-28T02:03:42.342Z,5.40
2022-09-28T02:06:12.412Z,5.40
2022-09-28T02:08:41.987Z,5.30
2022-09-28T02:11:12.483Z,5.30
2022-09-28T02:13:43.676Z,5.30
2022-09-28T02:16:15.223Z,5.30
2022-09-28T02:18:43.526Z,5.30
2022-09-28T02:21:14.020Z,5.20
2022-09-28T02:23:47.014Z,5.30
2022-09-28T02:26:16.600Z,5.20
2022-09-28T02:28:46.006Z,5.30
2022-09-28T02:31:14.022Z,5.30
2022-09-28T02:33:43.997Z,5.30
2022-09-28T02:36:12.349Z,5.30
2022-09-28T02:38:40.967Z,5.30
2022-09-28T02:41:12.579Z,5.30
2022-09-28T02:43:47.042Z,5.40
2022-09-28T02:46:19.105Z,5.40
2022-09-28T02:49:10.601Z,5.30
2022-09-28T02:51:50.820Z,5.30
2022-09-28T02:54:26.639Z,5.40
2022-09-28T02:57:06.123Z,5.40
2022-09-28T02:59:41.606Z,5.30
2022-09-28T03:02:15.502Z,5.20
2022-09-28T03:04:46.665Z,5.10
2022-09-28T03:07:23.697Z,5.10
2022-09-28T03:09:55.424Z,5.10
2022-09-28T03:12:24.716Z,5.10
2022-09-28T03:15:06.788Z,5.00
2022-09-28T03:17:36.203Z,4.90
2022-09-28T03:20:04.308Z,4.80
2022-09-28T03:22:32.540Z,4.80
2022-09-28T03:25:00.481Z,4.80
2022-09-28T03:27:28.418Z,4.80
2022-09-28T03:29:56.375Z,4.80
2022-09-28T03:32:24.418Z,4.90
2022-09-28T03:34:53.856Z,4.90
2022-09-28T03:37:21.806Z,5.00
2022-09-28T03:39:49.871Z,5.00
2022-09-28T03:42:17.801Z,5.10
2022-09-28T03:44:45.761Z,5.00
2022-09-28T03:47:14.081Z,4.90
2022-09-28T03:49:42.031Z,4.80
2022-09-28T03:52:11.326Z,4.70
2022-09-28T03:54:39.271Z,4.70
2022-09-28T03:57:07.355Z,4.60
2022-09-28T03:59:37.485Z,4.40
2022-09-28T04:02:06.500Z,4.40
2022-09-28T04:04:35.204Z,4.30
2022-09-28T04:07:03.154Z,4.30
2022-09-28T04:09:32.727Z,4.30
2022-09-28T04:12:04.235Z,4.20
2022-09-28T04:14:35.345Z,4.20
2022-09-28T04:17:06.713Z,4.10
2022-09-28T04:19:34.954Z,4.00
2022-09-28T04:22:03.105Z,3.90
2022-09-28T04:24:33.815Z,3.90
2022-09-28T04:27:15.738Z,3.80
2022-09-28T04:29:44.159Z,3.80
2022-09-28T04:32:12.727Z,3.70
2022-09-28T04:34:44.165Z,3.80
2022-09-28T04:37:12.584Z,4.00
2022-09-28T04:39:46.174Z,4.10
2022-09-28T04:42:16.451Z,4.10
2022-09-28T04:44:44.458Z,4.40
2022-09-28T04:47:12.407Z,4.50
2022-09-28T04:49:40.443Z,4.60
2022-09-28T04:52:08.444Z,4.80
2022-09-28T04:54:36.512Z,5.00
2022-09-28T04:57:06.267Z,5.10
2022-09-28T04:59:34.703Z,5.20
2022-09-28T05:02:02.808Z,5.30
2022-09-28T05:04:31.359Z,5.30
2022-09-28T05:06:59.421Z,5.30
2022-09-28T05:09:27.363Z,5.30
2022-09-28T05:11:55.301Z,5.30
2022-09-28T05:14:24.811Z,5.30
2022-09-28T05:16:52.892Z,5.20
2022-09-28T05:19:20.885Z,5.30
2022-09-28T05:21:49.299Z,5.40
2022-09-28T05:24:17.216Z,5.40
2022-09-28T05:26:45.148Z,5.50
2022-09-28T05:29:13.228Z,5.50
2022-09-28T05:31:42.821Z,5.60
2022-09-28T05:34:10.929Z,5.60
2022-09-28T05:36:39.984Z,5.70
2022-09-28T05:39:08.070Z,5.80
2022-09-28T05:41:35.966Z,5.90
2022-09-28T05:44:04.063Z,6.00
2022-09-28T05:46:31.972Z,6.00
2022-09-28T05:49:01.611Z,6.10
2022-09-28T05:51:29.565Z,6.10
2022-09-28T05:54:01.844Z,6.20
2022-09-28T05:56:33.029Z,6.30
2022-09-28T05:59:01.739Z,6.40
2022-09-28T06:01:29.796Z,6.40
2022-09-28T06:03:57.870Z,6.50
2022-09-28T06:06:27.516Z,6.60
2022-09-28T06:08:59.607Z,6.70
2022-09-28T06:11:28.008Z,6.80
2022-09-28T06:13:59.761Z,6.80
2022-09-28T06:16:28.057Z,6.90
2022-09-28T06:18:56.375Z,7.00
2022-09-28T06:21:24.507Z,7.00
2022-09-28T06:23:53.996Z,7.10
2022-09-28T06:26:22.140Z,7.20
2022-09-28T06:28:50.131Z,7.30
2022-09-28T06:31:20.384Z,7.40
2022-09-28T06:33:49.592Z,7.60
2022-09-28T06:36:17.672Z,7.80
2022-09-28T06:38:45.733Z,8.00
2022-09-28T06:41:15.080Z,8.10
2022-09-28T06:43:43.440Z,8.10
2022-09-28T06:46:11.390Z,8.20
2022-09-28T06:48:39.351Z,8.10
2022-09-28T06:51:07.637Z,8.10
2022-09-28T06:53:35.961Z,8.10
2022-09-28T06:56:04.941Z,8.00
2022-09-28T06:58:34.395Z,8.00
2022-09-28T07:01:02.477Z,8.00
2022-09-28T07:03:30.698Z,8.10
2022-09-28T07:05:58.955Z,8.10
2022-09-28T07:08:28.867Z,8.10
2022-09-28T07:10:57.353Z,8.10
2022-09-28T07:16:15.424Z,8.20
2022-09-28T07:18:43.388Z,8.30
2022-09-28T07:21:24.387Z,8.30
2022-09-28T07:23:55.100Z,8.50
2022-09-28T07:26:24.569Z,8.50
2022-09-28T07:28:54.511Z,8.50
2022-09-28T07:31:26.542Z,8.50
2022-09-28T07:33:56.596Z,8.30
2022-09-28T07:36:31.416Z,8.20
2022-09-28T07:38:59.721Z,8.20
2022-09-28T07:41:32.646Z,8.10
2022-09-28T07:44:06.199Z,8.10
2022-09-28T07:46:37.068Z,8.10
2022-09-28T07:49:08.478Z,8.10
2022-09-28T07:51:39.630Z,8.10
2022-09-28T07:54:07.659Z,8.10
2022-09-28T07:56:35.620Z,8.10
2022-09-28T07:59:04.087Z,8.10
2022-09-28T08:01:32.019Z,8.10
2022-09-28T08:04:01.911Z,8.10
2022-09-28T08:06:31.568Z,8.20
2022-09-28T08:09:01.915Z,8.20
2022-09-28T08:11:30.371Z,8.20
2022-09-28T08:14:00.198Z,8.20
2022-09-28T08:16:28.848Z,8.20
2022-09-28T08:19:01.361Z,8.10
2022-09-28T08:21:46.250Z,8.10
2022-09-28T08:24:14.791Z,8.10
2022-09-28T08:26:43.507Z,8.20
2022-09-28T08:29:11.632Z,8.10
2022-09-28T08:31:39.532Z,8.20
2022-09-28T08:34:09.079Z,8.30
2022-09-28T08:36:37.104Z,8.50
2022-09-28T08:39:05.233Z,8.50
2022-09-28T08:41:36.854Z,8.70
2022-09-28T08:44:12.657Z,8.70
2022-09-28T08:46:42.211Z,8.80
2022-09-28T08:49:24.860Z,8.80
2022-09-28T08:51:56.306Z,8.80
2022-09-28T08:54:29.061Z,8.70
2022-09-28T08:57:00.603Z,8.70
2022-09-28T08:59:31.137Z,8.70
2022-09-28T09:02:01.495Z,8.60
2022-09-28T09:04:31.675Z,8.60
2022-09-28T09:07:14.507Z,8.50
2022-09-28T09:09:49.111Z,8.60
2022-09-28T09:12:20.454Z,8.50
2022-09-28T09:15:06.314Z,8.50
2022-09-28T09:17:39.596Z,8.50
2022-09-28T09:20:16.287Z,8.40
2022-09-28T09:22:50.319Z,8.40
2022-09-28T09:25:22.648Z,8.40
2022-09-28T09:27:55.965Z,8.30
2022-09-28T09:30:28.859Z,8.20
2022-09-28T09:33:24.336Z,8.20
2022-09-28T09:36:01.952Z,8.10
2022-09-28T09:38:43.559Z,8.10
2022-09-28T09:41:17.819Z,8.00
2022-09-28T09:44:04.256Z,8.00
2022-09-28T09:46:37.725Z,7.80
2022-09-28T09:49:16.773Z,7.70
2022-09-28T09:51:48.973Z,7.60
2022-09-28T09:54:19.936Z,7.50
2022-09-28T09:56:49.995Z,7.50
2022-09-28T09:59:23.175Z,7.40
2022-09-28T10:01:52.044Z,7.50
2022-09-28T10:04:22.125Z,7.50
2022-09-28T10:06:54.027Z,7.50
2022-09-28T10:09:24.968Z,7.60
2022-09-28T10:11:54.572Z,7.60
2022-09-28T10:14:23.444Z,7.70
2022-09-28T10:16:53.161Z,7.70
2022-09-28T10:19:22.551Z,7.80
2022-09-28T10:21:52.885Z,7.90
2022-09-28T10:24:26.305Z,8.00
2022-09-28T10:26:55.796Z,8.00
2022-09-28T10:29:25.189Z,7.90
2022-09-28T10:31:54.185Z,7.80
2022-09-28T10:34:26.681Z,7.90
2022-09-28T10:36:58.580Z,8.20
2022-09-28T10:39:31.241Z,8.30
2022-09-28T10:42:03.031Z,8.20
2022-09-28T10:44:33.177Z,8.10
2022-09-28T10:47:02.087Z,8.10
2022-09-28T10:49:33.442Z,8.20
2022-09-28T10:52:03.009Z,8.20
2022-09-28T10:54:32.116Z,8.30
2022-09-28T10:57:00.584Z,8.30
2022-09-28T10:59:43.475Z,8.40
2022-09-28T11:02:18.373Z,8.40
2022-09-28T11:04:51.194Z,8.30
2022-09-28T11:07:22.010Z,8.30
2022-09-28T11:09:50.575Z,8.30
2022-09-28T11:12:20.427Z,8.30
2022-09-28T11:14:52.784Z,8.50
2022-09-28T11:17:26.579Z,8.60
2022-09-28T11:19:54.871Z,8.60
2022-09-28T11:22:26.194Z,8.60
2022-09-28T11:25:13.213Z,8.70
2022-09-28T11:27:41.211Z,8.90
2022-09-28T11:30:22.039Z,9.10
2022-09-28T11:32:50.152Z,9.30
2022-09-28T11:35:19.771Z,9.40
2022-09-28T11:37:56.832Z,9.40
2022-09-28T11:40:29.130Z,9.40
2022-09-28T11:45:38.876Z,9.80
2022-09-28T11:48:07.264Z,9.90
2022-09-28T11:50:41.896Z,10.00
2022-09-28T11:53:18.111Z,9.80
2022-09-28T11:55:48.481Z,9.80
2022-09-28T11:58:19.584Z,9.90
2022-09-28T12:00:49.410Z,10.10
2022-09-28T12:03:19.871Z,10.10
2022-09-28T12:05:49.684Z,10.10
2022-09-28T12:08:21.042Z,10.20
2022-09-28T12:10:53.788Z,10.20
2022-09-28T12:13:27.435Z,10.20
2022-09-28T12:16:32.618Z,10.20
2022-09-28T12:18:50.062Z,10.00
2022-09-28T12:21:31.687Z,9.80
2022-09-28T12:24:06.242Z,9.80
2022-09-28T12:26:37.894Z,9.80
2022-09-28T12:29:07.732Z,9.80
2022-09-28T12:31:53.601Z,9.70
2022-09-28T12:34:22.621Z,9.80
2022-09-28T12:36:54.834Z,9.80
2022-09-28T12:39:56.369Z,9.90
2022-09-28T12:42:34.471Z,10.10
2022-09-28T12:45:09.876Z,10.70
2022-09-28T12:47:47.137Z,11.20
2022-09-28T12:50:38.256Z,11.40
2022-09-28T12:53:23.599Z,11.60
2022-09-28T12:56:00.792Z,11.90
2022-09-28T12:58:37.635Z,11.80
2022-09-28T13:01:10.684Z,11.60
2022-09-28T13:03:56.637Z,11.40
2022-09-28T13:06:36.837Z,11.10
2022-09-28T13:09:16.127Z,10.90
2022-09-28T13:11:49.830Z,10.90
2022-09-28T13:14:35.556Z,10.90
2022-09-28T13:17:06.252Z,11.00
2022-09-28T13:19:37.083Z,11.00
2022-09-28T13:22:18.072Z,11.00
2022-09-28T13:24:46.999Z,10.70
2022-09-28T13:27:19.405Z,10.50
2022-09-28T13:29:50.337Z,10.60
2022-09-28T13:32:19.428Z,10.70
2022-09-28T13:34:49.308Z,10.70
2022-09-28T13:37:21.924Z,10.70
2022-09-28T13:39:52.613Z,10.60
2022-09-28T13:42:35.525Z,10.40
2022-09-28T13:45:13.011Z,10.30
2022-09-28T13:47:49.975Z,10.30
2022-09-28T13:50:23.149Z,10.30
2022-09-28T13:52:53.534Z,10.50
2022-09-28T13:55:33.001Z,10.80
2022-09-28T13:58:05.452Z,11.10
2022-09-28T14:00:37.228Z,11.10
2022-09-28T14:03:11.670Z,11.30
2022-09-28T14:05:47.039Z,11.30
2022-09-28T14:08:34.914Z,11.30
2022-09-28T14:11:34.399Z,11.20
2022-09-28T14:14:06.624Z,11.10
2022-09-28T14:16:35.718Z,10.90
2022-09-28T14:19:08.230Z,10.60
2022-09-28T14:21:49.126Z,10.30
2022-09-28T14:24:26.674Z,10.10
2022-09-28T14:27:05.086Z,9.90
2022-09-28T14:29:36.599Z,9.80
2022-09-28T14:32:23.041Z,9.80
2022-09-28T14:34:56.973Z,9.90
2022-09-28T14:37:45.416Z,10.00
2022-09-28T14:40:38.141Z,10.10
2022-09-28T14:43:24.368Z,10.10
2022-09-28T14:46:14.720Z,10.00
2022-09-28T14:48:45.935Z,10.00
2022-09-28T14:51:38.185Z,9.90
2022-09-28T14:54:07.251Z,9.90
2022-09-28T14:56:40.083Z,10.00
2022-09-28T14:59:08.802Z,10.30
2022-09-28T15:01:38.390Z,10.60
2022-09-28T15:04:10.835Z,10.90
2022-09-28T15:06:46.130Z,11.20
2022-09-28T15:09:29.790Z,11.50
2022-09-28T15:12:00.842Z,11.80
2022-09-28T15:14:31.886Z,11.80
2022-09-28T15:17:03.486Z,11.40
2022-09-28T15:19:34.433Z,10.90
2022-09-28T15:22:02.468Z,10.40
2022-09-28T15:24:32.893Z,10.10
2022-09-28T15:27:01.057Z,9.90
2022-09-28T15:29:31.708Z,9.60
2022-09-28T15:32:01.247Z,9.40
2022-09-28T15:34:48.960Z,9.20
2022-09-28T15:37:18.059Z,9.00
2022-09-28T15:39:48.243Z,8.90
2022-09-28T15:42:18.523Z,8.80
2022-09-28T15:45:01.620Z,8.70
2022-09-28T15:47:32.046Z,8.70
2022-09-28T15:50:01.954Z,8.70
2022-09-28T15:52:34.036Z,8.70
2022-09-28T15:55:02.896Z,8.70
2022-09-28T15:57:34.903Z,8.80
2022-09-28T16:00:03.434Z,8.80
2022-09-28T16:02:32.995Z,8.80
2022-09-28T16:05:02.006Z,8.80
2022-09-28T16:07:33.411Z,8.60
2022-09-28T16:10:02.843Z,8.40
2022-09-28T16:12:36.392Z,8.20
2022-09-28T16:15:05.717Z,8.10
2022-09-28T16:17:36.578Z,7.90
2022-09-28T16:20:06.882Z,7.80
2022-09-28T16:22:44.147Z,7.60
2022-09-28T16:25:17.587Z,7.50
2022-09-28T16:27:45.970Z,7.40
2022-09-28T16:30:21.791Z,7.30
2022-09-28T16:32:52.966Z,7.20
2022-09-28T16:35:22.948Z,7.10
2022-09-28T16:37:57.938Z,7.00
2022-09-28T16:40:26.595Z,6.90
2022-09-28T16:42:56.487Z,6.90
2022-09-28T16:45:24.655Z,6.80
2022-09-28T16:47:56.510Z,6.70
2022-09-28T16:50:25.157Z,6.70
2022-09-28T16:53:16.901Z,6.70
2022-09-28T16:55:45.399Z,6.60
2022-09-28T16:58:13.412Z,6.60
2022-09-28T17:00:43.560Z,6.50
2022-09-28T17:03:18.783Z,6.40
2022-09-28T17:05:48.040Z,6.30
2022-09-28T17:08:17.537Z,6.20
2022-09-28T17:11:13.565Z,6.10
2022-09-28T17:13:37.712Z,6.00
2022-09-28T17:16:08.555Z,5.90
2022-09-28T17:18:39.193Z,5.80
2022-09-28T17:21:08.136Z,5.80
2022-09-28T17:23:36.305Z,5.70
2022-09-28T17:26:05.344Z,5.80
2022-09-28T17:28:34.515Z,5.70
2022-09-28T17:31:02.928Z,5.70
2022-09-28T17:33:31.111Z,5.70
2022-09-28T17:36:01.416Z,5.80
2022-09-28T17:38:29.732Z,5.80
2022-09-28T17:40:57.839Z,5.70
2022-09-28T17:43:26.037Z,5.70
2022-09-28T17:45:54.224Z,5.60
2022-09-28T17:48:24.397Z,5.60
2022-09-28T17:50:52.523Z,5.60
2022-09-28T17:53:22.334Z,5.60
2022-09-28T17:55:50.515Z,5.50
2022-09-28T17:58:20.137Z,5.40
2022-09-28T18:00:48.936Z,5.40
2022-09-28T18:03:18.175Z,5.40
2022-09-28T18:05:48.347Z,5.30
2022-09-28T18:08:18.765Z,5.30
2022-09-28T18:10:48.208Z,5.20
2022-09-28T18:13:16.345Z,5.10
2022-09-28T18:15:44.522Z,5.00
2022-09-28T18:18:13.136Z,4.90
2022-09-28T18:20:42.063Z,4.80
2022-09-28T18:23:10.450Z,4.70
2022-09-28T18:25:40.376Z,4.70
2022-09-28T18:28:10.971Z,4.70
2022-09-28T18:30:40.390Z,4.60
2022-09-28T18:33:09.166Z,4.60
2022-09-28T18:35:37.687Z,4.40
2022-09-28T18:38:11.602Z,4.40
2022-09-28T18:40:42.687Z,4.30
2022-09-28T18:43:17.149Z,4.30
2022-09-28T18:45:56.284Z,4.20
2022-09-28T18:48:30.302Z,4.10
2022-09-28T18:51:00.129Z,4.00
2022-09-28T18:53:31.142Z,3.90
2022-09-28T18:55:59.817Z,3.80
2022-09-28T18:58:29.427Z,3.70
2022-09-28T19:01:13.501Z,3.70
2022-09-28T19:03:46.316Z,3.60
2022-09-28T19:06:15.820Z,3.60
2022-09-28T19:08:44.645Z,3.60
2022-09-28T19:11:17.696Z,3.50
2022-09-28T19:16:37.479Z,3.40
2022-09-28T19:19:35.141Z,3.30
2022-09-28T19:28:05.001Z,3.30
2022-09-28T19:30:45.258Z,3.20
2022-09-28T19:33:18.676Z,3.20
2022-09-28T19:35:56.296Z,3.10
2022-09-28T19:38:24.416Z,3.20
2022-09-28T19:40:57.100Z,3.20
2022-09-28T19:43:28.811Z,3.30
2022-09-28T19:46:07.269Z,3.20
2022-09-28T19:48:35.769Z,3.20
2022-09-28T19:51:17.624Z,3.10
2022-09-28T19:53:45.940Z,3.10
2022-09-28T19:56:23.192Z,3.10
2022-09-28T19:58:55.241Z,3.00
2022-09-28T20:01:25.310Z,2.90
2022-09-28T20:04:15.377Z,2.80
2022-09-28T20:06:46.479Z,2.80
2022-09-28T20:09:14.592Z,2.70
2022-09-28T20:14:41.045Z,2.70
2022-09-28T20:17:32.413Z,2.70
2022-09-28T20:20:08.575Z,2.70
2022-09-28T20:22:54.059Z,2.70
2022-09-28T20:25:35.551Z,2.70
2022-09-28T20:28:18.895Z,2.80
2022-09-28T20:31:20.276Z,2.70
2022-09-28T20:36:43.584Z,2.90
2022-09-28T20:42:10.351Z,3.00
2022-09-28T20:44:55.550Z,3.10
2022-09-28T20:50:43.772Z,2.80
2022-09-28T20:53:26.797Z,2.80
2022-09-28T20:56:13.718Z,2.80
2022-09-28T20:58:56.001Z,2.60
2022-09-28T21:01:42.105Z,2.70
2022-09-28T21:04:36.604Z,2.70
2022-09-28T21:07:23.722Z,2.70
2022-09-28T21:09:54.072Z,2.70
2022-09-28T21:12:36.027Z,2.70
2022-09-28T21:18:06.567Z,2.70
2022-09-28T21:21:09.954Z,2.80
2022-09-28T21:25:18.616Z,2.80
2022-09-28T21:31:21.806Z,2.60
2022-09-28T21:33:58.029Z,2.50
2022-09-28T21:36:35.771Z,2.40
2022-09-28T21:39:12.921Z,2.40
2022-09-28T21:42:20.174Z,2.30
2022-09-28T21:45:29.594Z,2.30
2022-09-28T21:48:01.779Z,2.20
2022-09-28T21:50:38.403Z,2.30
2022-09-28T21:53:18.897Z,2.40
2022-09-28T21:58:51.239Z,2.30
2022-09-28T22:01:48.052Z,2.20
2022-09-28T22:04:43.755Z,2.10
2022-09-28T22:07:22.640Z,2.10
2022-09-28T22:12:51.527Z,2.10
2022-09-28T22:15:29.703Z,2.10
2022-09-28T22:18:16.839Z,2.00
2022-09-28T22:21:09.001Z,2.00
2022-09-28T22:24:23.115Z,1.90
2022-09-28T22:27:28.624Z,1.90
2022-09-28T22:30:37.821Z,1.90
2022-09-28T22:33:10.383Z,1.90
2022-09-28T22:38:47.583Z,1.80
2022-09-28T22:41:39.007Z,1.80
2022-09-28T22:44:41.643Z,1.70
2022-09-28T22:47:33.913Z,1.80
2022-09-28T22:50:15.579Z,1.80
2022-09-28T22:53:31.635Z,1.80
2022-09-28T22:56:58.500Z,1.80
2022-09-28T22:59:14.242Z,1.80
2022-09-28T23:02:16.328Z,1.70
2022-09-28T23:08:03.907Z,1.70
2022-09-28T23:11:07.079Z,1.70
2022-09-28T23:14:05.112Z,1.90
2022-09-28T23:16:54.952Z,1.80
2022-09-28T23:20:00.404Z,1.80
2022-09-28T23:22:28.990Z,1.90
2022-09-28T23:25:27.625Z,1.90
2022-09-28T23:28:05.245Z,1.90
2022-09-28T23:30:37.641Z,2.00
2022-09-28T23:33:42.152Z,2.10
2022-09-28T23:36:27.825Z,2.10
2022-09-28T23:38:59.483Z,2.10
2022-09-28T23:41:51.470Z,2.10
2022-09-28T23:44:19.629Z,2.00
